Time;durP1;ratioP1;P1;durP2;ratioP2;P2;SDS_P1;SDS_P2;PMS_P1;PMS_P2;Temp;Humidity;BMP_temperature;BMP_pressure;BME280_temperature;BME280_humidity;BME280_pressure;Samples;Min_cycle;Max_cycle;Signal;HPM_P1;HPM_P2
2023/11/09 00:00:48;;;;;;;4.47;4.07;;;4.80;99.90;;;;;;5042647;28;20499;-69
2023/11/09 00:03:14;;;;;;;4.10;3.80;;;4.80;99.90;;;;;;5043030;28;20193;-68
2023/11/09 00:05:39;;;;;;;3.90;3.60;;;4.70;99.90;;;;;;5047611;28;20547;-67
2023/11/09 00:08:05;;;;;;;7.30;4.40;;;4.70;99.90;;;;;;5037145;28;20213;-67
2023/11/09 00:10:31;;;;;;;6.07;4.00;;;4.70;99.90;;;;;;5044789;28;20189;-67
2023/11/09 00:12:58;;;;;;;6.63;3.93;;;4.70;99.90;;;;;;5042680;28;20685;-66
2023/11/09 00:15:26;;;;;;;6.60;3.60;;;4.70;99.90;;;;;;5051532;28;20170;-67
2023/11/09 00:17:52;;;;;;;6.90;3.73;;;4.80;99.90;;;;;;5049795;28;20439;-67
2023/11/09 00:20:19;;;;;;;4.93;4.30;;;4.80;99.90;;;;;;5041192;28;20461;-67
2023/11/09 00:22:46;;;;;;;4.17;3.77;;;4.80;99.90;;;;;;5042705;28;20801;-67
2023/11/09 00:25:12;;;;;;;4.17;3.57;;;4.80;99.90;;;;;;5051450;28;20438;-67
2023/11/09 00:27:37;;;;;;;10.27;4.50;;;4.80;99.90;;;;;;5039539;28;20436;-67
2023/11/09 00:30:04;;;;;;;4.60;4.20;;;4.80;99.90;;;;;;5035838;28;20583;-67
2023/11/09 00:32:29;;;;;;;5.17;4.77;;;4.80;99.90;;;;;;5040809;28;20243;-67
2023/11/09 00:34:55;;;;;;;5.07;4.57;;;4.80;99.90;;;;;;5041744;28;20523;-67
2023/11/09 00:37:22;;;;;;;4.67;4.23;;;4.70;99.90;;;;;;5048922;28;20195;-67
2023/11/09 00:39:47;;;;;;;4.27;3.93;;;4.70;99.90;;;;;;5051218;28;20871;-67
2023/11/09 00:42:15;;;;;;;4.20;3.30;;;4.70;99.90;;;;;;5035982;28;20483;-67
2023/11/09 00:44:41;;;;;;;4.40;3.80;;;4.70;99.90;;;;;;5042631;28;20735;-67
2023/11/09 00:47:07;;;;;;;5.13;4.10;;;4.70;99.90;;;;;;5046685;28;20447;-67
2023/11/09 00:49:32;;;;;;;4.70;4.30;;;4.60;99.90;;;;;;5042380;28;20515;-67
2023/11/09 00:51:58;;;;;;;6.67;2.97;;;4.50;99.90;;;;;;5036555;28;20193;-67
2023/11/09 00:54:23;;;;;;;3.83;3.53;;;4.50;99.90;;;;;;5044079;28;20184;-67
2023/11/09 00:56:49;;;;;;;3.77;3.20;;;4.60;99.90;;;;;;5054655;28;20178;-67
2023/11/09 00:59:14;;;;;;;3.50;3.20;;;4.60;99.90;;;;;;5054570;28;20190;-67
2023/11/09 01:01:40;;;;;;;4.17;3.20;;;4.60;99.90;;;;;;5037961;28;20205;-67
2023/11/09 01:04:05;;;;;;;3.07;2.77;;;4.70;99.90;;;;;;5045869;28;20725;-68
2023/11/09 01:06:32;;;;;;;3.30;3.00;;;4.80;99.90;;;;;;5053185;28;20220;-67
2023/11/09 01:08:58;;;;;;;4.23;3.83;;;4.80;99.90;;;;;;5040915;28;20186;-67
2023/11/09 01:11:24;;;;;;;4.17;3.20;;;4.80;99.90;;;;;;5037361;28;21018;-67
2023/11/09 01:13:52;;;;;;;4.00;3.60;;;4.80;99.90;;;;;;5045584;28;20209;-67
2023/11/09 01:16:18;;;;;;;3.33;3.03;;;4.90;99.90;;;;;;5054348;28;20412;-67
2023/11/09 01:18:43;;;;;;;3.27;3.00;;;4.90;99.90;;;;;;5040220;28;20494;-67
2023/11/09 01:21:09;;;;;;;3.97;3.40;;;4.90;99.90;;;;;;5041850;28;20528;-67
2023/11/09 01:23:35;;;;;;;6.80;3.10;;;4.90;99.90;;;;;;5044924;28;20200;-67
2023/11/09 01:26:00;;;;;;;3.80;3.13;;;4.90;99.90;;;;;;5054167;28;20199;-66
2023/11/09 01:28:26;;;;;;;5.00;3.20;;;4.90;99.90;;;;;;5044957;28;20204;-67
2023/11/09 01:30:51;;;;;;;3.20;2.90;;;4.90;99.90;;;;;;5044785;28;20189;-67
2023/11/09 01:33:17;;;;;;;4.10;3.17;;;4.90;99.90;;;;;;5042752;28;20213;-67
2023/11/09 01:35:42;;;;;;;5.03;3.37;;;4.90;99.90;;;;;;5045363;28;20170;-67
2023/11/09 01:38:08;;;;;;;3.13;2.83;;;5.00;99.90;;;;;;5048581;28;20186;-67
2023/11/09 01:40:35;;;;;;;3.93;3.27;;;4.90;99.90;;;;;;5041248;28;20272;-67
2023/11/09 01:43:00;;;;;;;3.80;2.73;;;4.90;99.90;;;;;;5048741;28;20272;-67
2023/11/09 01:45:27;;;;;;;2.43;2.23;;;4.90;99.90;;;;;;5052882;28;20528;-67
2023/11/09 01:47:53;;;;;;;6.67;3.90;;;4.90;99.90;;;;;;5041385;28;20265;-67
2023/11/09 01:50:19;;;;;;;5.00;2.23;;;4.90;99.90;;;;;;5044121;28;20471;-67
2023/11/09 01:52:45;;;;;;;3.50;3.20;;;4.90;99.90;;;;;;5045367;28;20542;-67
2023/11/09 01:55:13;;;;;;;4.10;3.57;;;4.90;99.90;;;;;;5044463;28;20516;-67
2023/11/09 01:57:41;;;;;;;8.90;3.40;;;4.90;99.90;;;;;;5041521;28;20182;-67
2023/11/09 02:00:10;;;;;;;4.23;2.87;;;5.00;99.90;;;;;;5042135;28;20919;-67
2023/11/09 02:02:36;;;;;;;5.03;3.30;;;5.00;99.90;;;;;;5045327;28;20579;-67
2023/11/09 02:05:02;;;;;;;3.33;3.03;;;5.00;99.90;;;;;;5041113;28;20436;-67
2023/11/09 02:07:28;;;;;;;4.60;3.30;;;5.00;99.90;;;;;;5044179;28;21006;-67
2023/11/09 02:09:55;;;;;;;3.90;3.50;;;5.00;99.90;;;;;;5040738;28;20471;-67
2023/11/09 02:12:21;;;;;;;3.53;3.10;;;5.00;99.90;;;;;;5037101;28;20210;-67
2023/11/09 02:14:47;;;;;;;3.37;2.80;;;4.90;99.90;;;;;;5040054;28;20417;-66
2023/11/09 02:17:13;;;;;;;4.10;3.37;;;4.90;99.90;;;;;;5033208;28;20416;-68
2023/11/09 02:19:38;;;;;;;4.60;3.20;;;4.90;99.90;;;;;;5032992;28;20214;-67
2023/11/09 02:22:05;;;;;;;3.83;3.30;;;4.90;99.90;;;;;;5039368;28;20252;-67
2023/11/09 02:24:30;;;;;;;4.90;2.97;;;5.00;99.90;;;;;;5042642;28;20174;-67
2023/11/09 02:26:57;;;;;;;3.37;2.60;;;5.00;99.90;;;;;;5039857;28;20439;-67
2023/11/09 02:29:23;;;;;;;2.57;2.33;;;5.00;99.90;;;;;;5037432;28;20824;-67
2023/11/09 02:31:49;;;;;;;3.60;3.30;;;5.00;99.90;;;;;;5043605;28;20435;-67
2023/11/09 02:34:19;;;;;;;2.50;2.20;;;5.10;99.90;;;;;;5044033;28;20447;-67
2023/11/09 02:36:45;;;;;;;4.10;3.17;;;5.10;99.90;;;;;;5041040;28;20440;-66
2023/11/09 02:39:12;;;;;;;2.90;2.63;;;5.10;99.90;;;;;;5039557;28;20460;-67
2023/11/09 02:41:38;;;;;;;5.20;2.90;;;5.10;99.90;;;;;;5044287;28;20519;-67
2023/11/09 02:44:04;;;;;;;3.30;2.97;;;5.20;99.90;;;;;;5052292;28;20440;-67
2023/11/09 02:46:30;;;;;;;2.47;2.27;;;5.30;99.90;;;;;;5034074;28;20429;-67
2023/11/09 02:48:56;;;;;;;3.23;2.60;;;5.40;99.90;;;;;;5038867;28;20472;-67
2023/11/09 02:51:22;;;;;;;2.50;2.30;;;5.40;99.90;;;;;;5040283;28;20507;-67
2023/11/09 02:53:48;;;;;;;3.30;2.30;;;5.40;99.90;;;;;;5043851;28;20944;-67
2023/11/09 02:56:13;;;;;;;2.60;2.40;;;5.40;99.90;;;;;;5032627;28;20578;-67
2023/11/09 02:58:40;;;;;;;3.93;2.10;;;5.40;99.90;;;;;;5032447;28;20220;-67
2023/11/09 03:01:06;;;;;;;2.80;2.60;;;5.50;99.90;;;;;;5030904;28;20182;-67
2023/11/09 03:03:32;;;;;;;2.30;2.10;;;5.40;99.90;;;;;;5041289;28;21023;-66
2023/11/09 03:05:57;;;;;;;3.60;2.27;;;5.50;99.90;;;;;;5052304;28;20170;-67
2023/11/09 03:08:24;;;;;;;2.17;1.97;;;5.50;99.90;;;;;;5042136;28;20837;-67
2023/11/09 03:10:50;;;;;;;3.40;2.33;;;5.50;99.90;;;;;;5041938;28;20247;-67
2023/11/09 03:13:15;;;;;;;2.93;2.63;;;5.60;99.90;;;;;;5038027;28;21059;-67
2023/11/09 03:15:44;;;;;;;2.10;2.00;;;5.60;99.90;;;;;;5041877;28;20557;-67
2023/11/09 03:18:09;;;;;;;2.90;2.33;;;5.60;99.90;;;;;;5040224;28;20178;-67
2023/11/09 03:20:35;;;;;;;2.57;1.90;;;5.60;99.90;;;;;;5032119;28;20467;-67
2023/11/09 03:23:02;;;;;;;3.33;2.53;;;5.60;99.90;;;;;;5039514;28;20291;-67
2023/11/09 03:25:28;;;;;;;5.03;2.13;;;5.60;99.90;;;;;;5040404;28;20182;-67
2023/11/09 03:27:53;;;;;;;2.40;2.20;;;5.50;99.90;;;;;;5041379;28;20483;-67
2023/11/09 03:30:19;;;;;;;2.30;2.10;;;5.50;99.90;;;;;;5044817;28;20427;-67
2023/11/09 03:32:44;;;;;;;3.60;2.40;;;5.50;99.90;;;;;;5037244;28;20250;-67
2023/11/09 03:35:12;;;;;;;2.60;2.40;;;5.50;99.90;;;;;;5042177;28;20181;-67
2023/11/09 03:37:37;;;;;;;2.70;2.50;;;5.50;99.90;;;;;;5042014;28;20182;-67
2023/11/09 03:40:06;;;;;;;2.73;2.53;;;5.40;99.90;;;;;;5040672;28;20456;-67
2023/11/09 03:42:33;;;;;;;3.30;2.40;;;5.40;99.90;;;;;;5040239;28;20193;-67
2023/11/09 03:44:58;;;;;;;3.70;2.70;;;5.30;99.90;;;;;;5033288;28;20428;-67
2023/11/09 03:47:24;;;;;;;2.80;2.47;;;5.30;99.90;;;;;;5031865;28;20428;-67
2023/11/09 03:49:49;;;;;;;2.60;2.40;;;5.20;99.90;;;;;;5033559;28;20194;-67
2023/11/09 03:52:15;;;;;;;3.10;2.10;;;5.30;99.90;;;;;;5038614;28;20582;-67
2023/11/09 03:54:40;;;;;;;2.53;2.33;;;5.20;99.90;;;;;;5042527;28;20182;-67
2023/11/09 03:57:06;;;;;;;2.40;2.20;;;5.20;99.90;;;;;;5042699;28;20201;-67
2023/11/09 03:59:31;;;;;;;2.73;2.23;;;5.10;99.90;;;;;;5037622;28;20675;-67
2023/11/09 04:01:57;;;;;;;3.30;2.20;;;5.10;99.90;;;;;;5036158;28;20219;-67
2023/11/09 04:04:23;;;;;;;2.53;1.93;;;5.10;99.90;;;;;;5031248;28;20170;-67
2023/11/09 04:06:48;;;;;;;4.07;2.10;;;5.10;99.90;;;;;;5031392;28;20167;-67
2023/11/09 04:09:14;;;;;;;2.60;2.40;;;5.00;99.90;;;;;;5033940;28;20181;-67
2023/11/09 04:11:40;;;;;;;5.00;2.33;;;5.00;99.90;;;;;;5040705;28;20722;-67
2023/11/09 04:14:07;;;;;;;2.47;2.03;;;4.90;99.90;;;;;;5041861;28;20233;-67
2023/11/09 04:16:34;;;;;;;1.93;1.77;;;4.90;99.90;;;;;;5042433;28;20181;-67
2023/11/09 04:19:00;;;;;;;1.93;1.83;;;4.80;99.90;;;;;;5046957;28;20502;-67
2023/11/09 04:21:25;;;;;;;3.60;3.30;;;4.80;99.90;;;;;;5030358;28;20465;-67
2023/11/09 04:23:51;;;;;;;3.20;2.87;;;4.70;99.90;;;;;;5046626;28;20208;-67
2023/11/09 04:26:16;;;;;;;3.43;2.90;;;4.70;99.90;;;;;;5049455;28;20173;-67
2023/11/09 04:28:42;;;;;;;3.50;2.30;;;4.70;99.90;;;;;;5034741;28;20700;-67
2023/11/09 04:31:09;;;;;;;3.87;2.70;;;4.70;99.90;;;;;;5043977;28;20256;-67
2023/11/09 04:33:35;;;;;;;4.10;2.30;;;4.70;99.90;;;;;;5042691;28;20448;-67
2023/11/09 04:36:05;;;;;;;5.40;2.90;;;4.80;99.90;;;;;;5040173;28;21127;-66
2023/11/09 04:38:36;;;;;;;3.47;2.50;;;4.80;99.90;;;;;;5044952;28;20837;-67
2023/11/09 04:41:05;;;;;;;3.43;2.70;;;4.80;99.90;;;;;;5053589;28;20464;-67
2023/11/09 04:43:31;;;;;;;5.80;3.63;;;4.80;99.90;;;;;;5050350;28;20518;-67
2023/11/09 04:46:05;;;;;;;2.90;2.70;;;4.80;99.90;;;;;;5045199;28;20566;-67
2023/11/09 04:48:31;;;;;;;6.80;3.60;;;4.80;99.90;;;;;;5032998;28;20472;-66
2023/11/09 04:51:06;;;;;;;5.23;3.47;;;4.80;99.90;;;;;;5044911;28;20445;-67
2023/11/09 04:53:39;;;;;;;4.30;3.90;;;4.80;99.90;;;;;;5039259;28;20463;-67
2023/11/09 04:56:19;;;;;;;5.20;3.37;;;4.80;99.90;;;;;;5039984;28;20425;-67
2023/11/09 04:58:48;;;;;;;4.10;3.20;;;4.80;99.90;;;;;;5042358;28;20441;-67
2023/11/09 05:06:48;;;;;;;6.63;3.90;;;4.80;99.90;;;;;;5032619;28;20458;-67
2023/11/09 05:09:18;;;;;;;5.57;3.60;;;4.80;99.90;;;;;;5045624;28;20877;-67
2023/11/09 05:11:45;;;;;;;3.90;3.60;;;4.80;99.90;;;;;;5044335;28;21001;-67
2023/11/09 05:14:10;;;;;;;16.73;4.07;;;4.80;99.90;;;;;;5043276;28;20802;-68
2023/11/09 05:16:40;;;;;;;4.60;3.60;;;4.80;99.90;;;;;;5040659;28;20435;-67
2023/11/09 05:19:05;;;;;;;4.10;3.57;;;4.80;99.90;;;;;;5034226;28;20256;-68
2023/11/09 05:21:31;;;;;;;6.40;3.63;;;4.80;99.90;;;;;;5034235;28;20815;-68
2023/11/09 05:23:56;;;;;;;3.20;2.90;;;4.80;99.90;;;;;;5046943;28;20208;-67
2023/11/09 05:26:25;;;;;;;5.03;3.80;;;4.80;99.90;;;;;;5046066;28;20304;-67
2023/11/09 05:28:51;;;;;;;5.70;3.20;;;4.80;99.90;;;;;;5040095;28;20178;-68
2023/11/09 05:31:17;;;;;;;7.20;4.47;;;4.80;99.90;;;;;;5047483;28;20471;-68
2023/11/09 05:33:44;;;;;;;4.30;3.50;;;4.90;99.90;;;;;;5040403;28;20471;-70
2023/11/09 05:36:10;;;;;;;3.63;3.30;;;4.90;99.90;;;;;;5038034;28;20167;-67
2023/11/09 05:38:36;;;;;;;4.10;3.40;;;5.00;99.90;;;;;;5048153;28;20930;-67
2023/11/09 05:41:04;;;;;;;4.63;3.90;;;5.00;99.90;;;;;;5036742;28;20464;-69
2023/11/09 05:43:30;;;;;;;6.03;5.43;;;5.00;99.90;;;;;;5040209;28;20449;-68
2023/11/09 05:45:56;;;;;;;5.83;4.57;;;5.00;99.90;;;;;;5044990;28;20427;-68
2023/11/09 05:48:22;;;;;;;7.17;5.20;;;5.10;99.90;;;;;;5045807;28;20423;-68
2023/11/09 05:50:47;;;;;;;5.90;5.23;;;5.00;99.90;;;;;;5038436;28;20464;-67
2023/11/09 05:53:13;;;;;;;4.90;3.80;;;5.10;99.90;;;;;;5041613;28;20205;-67
2023/11/09 05:55:38;;;;;;;4.40;4.00;;;5.10;99.90;;;;;;5031293;28;20177;-69
2023/11/09 05:58:04;;;;;;;4.10;3.70;;;5.20;99.90;;;;;;5047365;28;20189;-68
2023/11/09 06:00:30;;;;;;;5.10;3.53;;;5.20;99.90;;;;;;5041205;28;20745;-67
2023/11/09 06:02:58;;;;;;;4.77;4.10;;;5.30;99.90;;;;;;5042118;28;20200;-68
2023/11/09 06:05:26;;;;;;;7.20;4.33;;;5.30;99.90;;;;;;5032224;28;20468;-68
2023/11/09 06:07:56;;;;;;;4.93;3.70;;;5.40;99.90;;;;;;5040286;28;20467;-67
2023/11/09 06:10:23;;;;;;;4.17;3.63;;;5.40;99.90;;;;;;5039620;28;20918;-67
2023/11/09 06:12:49;;;;;;;4.10;3.70;;;5.40;99.90;;;;;;5033704;28;20471;-67
2023/11/09 06:15:15;;;;;;;6.00;4.23;;;5.40;99.90;;;;;;5038679;28;20527;-68
2023/11/09 06:17:44;;;;;;;10.53;7.40;;;5.40;99.90;;;;;;5046211;28;20806;-68
2023/11/09 06:20:16;;;;;;;7.43;5.50;;;5.50;99.90;;;;;;5034903;28;20461;-68
2023/11/09 06:22:43;;;;;;;7.20;6.50;;;5.50;99.90;;;;;;5031548;28;20811;-68
2023/11/09 06:25:09;;;;;;;6.03;4.50;;;5.50;99.90;;;;;;5048192;28;20427;-68
2023/11/09 06:27:38;;;;;;;7.00;5.27;;;5.50;99.90;;;;;;5044643;28;20477;-68
2023/11/09 06:30:06;;;;;;;5.17;4.67;;;5.60;99.90;;;;;;5040887;28;20432;-67
2023/11/09 06:32:33;;;;;;;4.90;4.40;;;5.50;99.90;;;;;;5046553;28;20443;-69
2023/11/09 06:35:03;;;;;;;6.27;3.03;;;5.50;99.90;;;;;;5041378;28;20462;-67
2023/11/09 06:37:30;;;;;;;5.40;3.53;;;5.60;99.90;;;;;;5044662;28;20427;-68
2023/11/09 06:39:58;;;;;;;3.47;3.07;;;5.60;99.90;;;;;;5052630;28;20504;-68
2023/11/09 06:42:24;;;;;;;4.60;3.60;;;5.70;99.90;;;;;;5042044;28;20462;-67
2023/11/09 06:44:51;;;;;;;7.00;3.80;;;5.80;99.90;;;;;;5035185;28;20591;-67
2023/11/09 06:47:16;;;;;;;3.30;3.00;;;5.90;99.90;;;;;;5040903;28;20511;-68
2023/11/09 06:49:42;;;;;;;5.43;3.70;;;5.90;99.90;;;;;;5039767;28;20519;-67
2023/11/09 06:52:09;;;;;;;3.30;3.00;;;6.00;99.90;;;;;;5038076;28;20209;-67
2023/11/09 06:54:35;;;;;;;4.93;4.20;;;6.00;99.90;;;;;;5033456;28;20173;-67
2023/11/09 06:57:02;;;;;;;5.63;4.23;;;6.10;99.90;;;;;;5046513;28;20434;-67
2023/11/09 06:59:28;;;;;;;5.60;3.50;;;6.10;99.90;;;;;;5035099;28;20198;-68
2023/11/09 07:01:53;;;;;;;6.50;3.90;;;6.20;99.90;;;;;;5042140;28;20429;-69
2023/11/09 07:04:19;;;;;;;7.60;3.40;;;6.20;99.90;;;;;;5032177;28;20217;-69
2023/11/09 07:06:45;;;;;;;5.63;3.43;;;6.30;99.90;;;;;;5039563;28;20174;-69
2023/11/09 07:09:11;;;;;;;3.70;3.40;;;6.40;99.90;;;;;;5040150;28;20723;-69
2023/11/09 07:11:37;;;;;;;5.57;4.17;;;6.40;99.90;;;;;;5044051;28;20970;-69
2023/11/09 07:14:03;;;;;;;8.10;4.63;;;6.50;99.90;;;;;;5048628;28;20543;-69
2023/11/09 07:16:28;;;;;;;6.07;4.10;;;6.50;99.90;;;;;;5029673;28;21013;-69
2023/11/09 07:18:54;;;;;;;4.40;3.90;;;6.60;99.90;;;;;;5030566;28;20520;-69
2023/11/09 07:21:21;;;;;;;3.10;2.90;;;6.60;99.90;;;;;;5041611;28;20177;-69
2023/11/09 07:23:48;;;;;;;5.53;2.67;;;6.70;99.90;;;;;;5041635;28;20201;-69
2023/11/09 07:26:14;;;;;;;2.97;2.70;;;6.70;99.90;;;;;;5042949;28;20420;-69
2023/11/09 07:28:41;;;;;;;4.37;2.80;;;6.90;99.90;;;;;;5031021;28;20579;-69
2023/11/09 07:31:06;;;;;;;4.30;3.20;;;7.00;99.90;;;;;;5039333;28;20456;-69
2023/11/09 07:33:32;;;;;;;2.63;1.67;;;7.20;99.90;;;;;;5038814;28;20460;-69
2023/11/09 07:35:59;;;;;;;3.00;2.70;;;7.30;99.90;;;;;;5037123;28;20181;-69
2023/11/09 07:38:25;;;;;;;2.73;1.87;;;7.60;99.90;;;;;;5033436;28;20182;-69
2023/11/09 07:40:50;;;;;;;2.00;1.50;;;7.80;99.90;;;;;;5030176;28;20451;-70
2023/11/09 07:43:16;;;;;;;2.23;2.03;;;8.00;99.90;;;;;;5032177;28;20679;-73
2023/11/09 07:45:42;;;;;;;3.07;1.60;;;8.10;99.90;;;;;;5040341;28;20197;-69
2023/11/09 07:48:07;;;;;;;1.87;1.43;;;8.10;99.90;;;;;;5043610;28;20236;-68
2023/11/09 07:50:33;;;;;;;1.60;1.50;;;8.00;99.90;;;;;;5039684;28;20204;-68
2023/11/09 07:53:00;;;;;;;2.27;1.80;;;7.90;99.90;;;;;;5028100;28;20212;-70
2023/11/09 07:55:29;;;;;;;3.57;2.03;;;7.90;99.90;;;;;;5029784;28;20182;-69
2023/11/09 07:58:02;;;;;;;3.13;2.10;;;7.80;99.90;;;;;;5041370;28;20462;-69
2023/11/09 08:00:29;;;;;;;3.87;2.40;;;7.60;99.90;;;;;;5046331;28;20451;-69
2023/11/09 08:02:55;;;;;;;3.43;2.60;;;7.60;99.90;;;;;;5042455;28;20449;-68
2023/11/09 08:05:20;;;;;;;2.50;2.30;;;7.50;99.90;;;;;;5043005;28;20428;-68
2023/11/09 08:07:46;;;;;;;3.93;2.70;;;7.40;99.90;;;;;;5054284;28;20909;-68
2023/11/09 08:10:12;;;;;;;2.93;2.70;;;7.40;99.90;;;;;;5036213;28;20185;-68
2023/11/09 08:12:41;;;;;;;2.93;2.63;;;7.50;99.90;;;;;;5046373;28;20205;-68
2023/11/09 08:15:10;;;;;;;2.80;2.60;;;7.50;99.90;;;;;;5037860;28;21514;-68
2023/11/09 08:17:41;;;;;;;5.60;4.53;;;7.60;99.90;;;;;;5042341;28;20863;-68
2023/11/09 08:20:13;;;;;;;2.60;2.40;;;7.60;99.90;;;;;;5046724;28;20859;-70
2023/11/09 08:22:40;;;;;;;2.77;2.57;;;7.70;99.90;;;;;;5048440;28;20440;-70
2023/11/09 08:25:06;;;;;;;2.50;2.23;;;7.70;99.90;;;;;;5040953;28;20440;-71
2023/11/09 08:27:31;;;;;;;2.87;2.23;;;7.80;99.90;;;;;;5035093;28;20429;-68
2023/11/09 08:29:57;;;;;;;2.70;2.47;;;7.90;99.90;;;;;;5043462;28;20447;-69
2023/11/09 08:32:25;;;;;;;3.17;1.80;;;8.00;99.90;;;;;;5046610;28;20189;-70
2023/11/09 08:34:52;;;;;;;4.83;2.20;;;8.10;99.90;;;;;;5037120;28;20185;-71
2023/11/09 08:37:17;;;;;;;3.70;2.87;;;8.30;99.90;;;;;;5039875;28;20436;-70
2023/11/09 08:39:43;;;;;;;3.60;3.30;;;8.30;99.90;;;;;;5037026;28;20809;-70
2023/11/09 08:42:09;;;;;;;2.77;2.37;;;8.40;99.90;;;;;;5032982;28;20191;-68
2023/11/09 08:44:36;;;;;;;3.07;2.80;;;8.40;99.90;;;;;;5036106;28;20239;-67
2023/11/09 08:47:01;;;;;;;3.40;2.57;;;8.50;99.90;;;;;;5034394;28;20205;-68
2023/11/09 08:49:27;;;;;;;3.70;3.30;;;8.50;99.90;;;;;;5040813;28;21080;-68
2023/11/09 08:51:53;;;;;;;3.17;2.67;;;8.60;99.90;;;;;;5044168;28;20180;-68
2023/11/09 08:54:19;;;;;;;3.73;3.33;;;8.70;99.90;;;;;;5037647;28;20984;-68
2023/11/09 08:56:46;;;;;;;2.60;2.40;;;8.70;99.90;;;;;;5034982;28;20195;-68
2023/11/09 08:59:11;;;;;;;2.60;2.40;;;8.80;99.90;;;;;;5039873;28;20288;-68
2023/11/09 09:01:37;;;;;;;3.90;3.60;;;8.90;99.90;;;;;;5044818;28;20568;-68
2023/11/09 09:04:03;;;;;;;2.83;2.20;;;9.00;99.90;;;;;;5043998;28;20667;-68
2023/11/09 09:06:30;;;;;;;3.40;3.10;;;9.00;99.90;;;;;;5040398;28;20174;-68
2023/11/09 09:08:56;;;;;;;2.63;2.43;;;9.00;99.90;;;;;;5042587;28;20444;-68
2023/11/09 09:11:22;;;;;;;2.70;2.50;;;9.00;99.90;;;;;;5042794;28;20433;-68
2023/11/09 09:13:47;;;;;;;3.40;3.03;;;9.00;99.90;;;;;;5044009;28;20235;-68
2023/11/09 09:16:15;;;;;;;3.50;2.60;;;9.00;99.90;;;;;;5040286;28;20178;-68
2023/11/09 09:18:42;;;;;;;4.27;2.73;;;9.00;99.90;;;;;;5040165;28;20694;-68
2023/11/09 09:21:08;;;;;;;5.33;2.90;;;9.00;99.90;;;;;;5037529;28;20471;-68
2023/11/09 09:23:37;;;;;;;5.00;2.50;;;9.00;99.90;;;;;;5043769;28;20470;-68
2023/11/09 09:26:04;;;;;;;2.33;2.13;;;9.00;99.90;;;;;;5044797;28;20439;-68
2023/11/09 09:28:29;;;;;;;3.97;2.03;;;9.00;99.90;;;;;;5041531;28;20443;-68
2023/11/09 09:30:55;;;;;;;2.73;2.40;;;9.10;99.90;;;;;;5038339;28;20445;-68
2023/11/09 09:33:20;;;;;;;7.47;2.00;;;9.10;99.90;;;;;;5037816;28;20209;-68
2023/11/09 09:35:47;;;;;;;2.50;2.30;;;9.20;99.90;;;;;;5039321;28;20190;-68
2023/11/09 09:38:15;;;;;;;3.20;2.30;;;9.30;99.90;;;;;;5054473;28;20181;-68
2023/11/09 09:40:41;;;;;;;3.63;2.40;;;9.30;99.90;;;;;;5034976;28;20470;-70
2023/11/09 09:43:11;;;;;;;2.50;2.30;;;9.40;99.90;;;;;;5039841;28;20453;-70
2023/11/09 09:45:37;;;;;;;2.30;2.20;;;9.50;99.90;;;;;;5041948;28;20435;-70
2023/11/09 09:48:03;;;;;;;3.03;2.50;;;9.50;99.90;;;;;;5035545;28;20998;-70
2023/11/09 09:50:40;;;;;;;2.50;2.30;;;9.50;99.90;;;;;;5039772;28;20437;-70
2023/11/09 09:53:09;;;;;;;2.90;2.07;;;9.60;99.90;;;;;;5039650;28;20542;-71
2023/11/09 09:55:36;;;;;;;2.60;1.70;;;9.60;99.90;;;;;;5043947;28;20466;-71
2023/11/09 09:58:03;;;;;;;3.43;1.40;;;9.70;99.90;;;;;;5028642;28;20458;-71
2023/11/09 10:00:31;;;;;;;2.93;2.40;;;9.70;99.90;;;;;;5033363;28;20560;-71
2023/11/09 10:03:06;;;;;;;2.03;1.60;;;9.70;99.90;;;;;;5034046;28;20987;-71
2023/11/09 10:05:34;;;;;;;1.70;1.60;;;9.70;99.90;;;;;;5042467;28;20929;-70
2023/11/09 10:08:10;;;;;;;1.90;1.70;;;9.80;99.90;;;;;;5039411;28;20794;-70
2023/11/09 10:10:36;;;;;;;1.97;1.60;;;9.80;99.90;;;;;;5039740;28;20447;-69
2023/11/09 10:13:06;;;;;;;1.50;1.40;;;9.90;99.90;;;;;;5035228;28;20849;-71
2023/11/09 10:15:31;;;;;;;2.17;1.43;;;10.00;99.90;;;;;;5040476;28;20319;-70
2023/11/09 10:17:58;;;;;;;1.53;1.40;;;10.00;99.90;;;;;;5029060;28;20914;-69
2023/11/09 10:20:24;;;;;;;1.90;1.53;;;10.10;99.90;;;;;;5043247;28;20201;-69
2023/11/09 10:22:52;;;;;;;1.73;1.63;;;10.10;99.90;;;;;;5036974;28;20954;-70
2023/11/09 10:25:18;;;;;;;1.33;1.23;;;10.20;99.90;;;;;;5040715;28;20486;-69
2023/11/09 10:27:47;;;;;;;2.73;1.50;;;10.20;99.90;;;;;;5042800;28;20436;-69
2023/11/09 10:30:15;;;;;;;1.87;1.67;;;10.20;99.90;;;;;;5044883;28;20199;-69
2023/11/09 10:32:40;;;;;;;2.10;1.90;;;10.20;99.90;;;;;;5034437;28;20831;-69
2023/11/09 10:35:07;;;;;;;3.00;2.70;;;10.20;99.90;;;;;;5040145;28;20433;-69
2023/11/09 10:37:36;;;;;;;3.53;1.70;;;10.30;99.90;;;;;;5033523;28;20178;-70
2023/11/09 10:40:05;;;;;;;1.50;1.40;;;10.40;99.90;;;;;;5037136;28;20474;-69
2023/11/09 10:42:31;;;;;;;2.03;1.53;;;10.40;99.90;;;;;;5035722;28;20467;-69
2023/11/09 10:45:02;;;;;;;1.73;1.27;;;10.50;99.90;;;;;;5039816;28;20780;-70
2023/11/09 10:47:29;;;;;;;1.23;1.03;;;10.50;99.90;;;;;;5041704;28;20437;-70
2023/11/09 10:49:58;;;;;;;1.20;1.10;;;10.60;99.90;;;;;;5043311;28;20493;-69
2023/11/09 10:52:25;;;;;;;1.10;0.90;;;10.70;99.90;;;;;;5041372;28;20550;-69
2023/11/09 10:54:55;;;;;;;1.30;1.10;;;10.80;99.90;;;;;;5029519;28;20441;-69
2023/11/09 10:57:21;;;;;;;1.70;1.53;;;10.90;99.90;;;;;;5030532;28;21165;-69
2023/11/09 10:59:50;;;;;;;1.77;1.30;;;11.00;99.90;;;;;;5035527;28;20459;-69
2023/11/09 11:02:19;;;;;;;1.43;1.33;;;11.30;99.90;;;;;;5042522;28;20530;-69
2023/11/09 11:04:55;;;;;;;1.30;1.20;;;11.40;99.90;;;;;;5036283;28;20486;-69
2023/11/09 11:07:25;;;;;;;1.67;1.50;;;11.60;99.90;;;;;;5038123;28;20452;-70
2023/11/09 11:09:52;;;;;;;2.33;2.17;;;12.00;99.90;;;;;;5040143;28;20439;-70
2023/11/09 11:12:19;;;;;;;6.93;2.67;;;12.90;99.90;;;;;;5064674;22;21000;-73
2023/11/09 11:14:49;;;;;;;18.90;6.33;;;13.20;99.90;;;;;;5010506;28;20437;-73
2023/11/09 11:17:38;;;;;;;5.30;2.00;;;13.80;99.90;;;;;;5017546;28;20426;-73
2023/11/09 11:20:25;;;;;;;5.03;1.87;;;13.70;99.90;;;;;;5007903;28;20457;-73
2023/11/09 11:23:02;;;;;;;8.03;2.33;;;13.40;99.90;;;;;;5008618;28;20448;-73
2023/11/09 11:25:51;;;;;;;7.30;2.03;;;13.00;99.90;;;;;;5020188;28;20433;-70
2023/11/09 11:28:18;;;;;;;1.70;1.60;;;12.60;99.90;;;;;;5014971;28;20438;-73
2023/11/09 11:30:44;;;;;;;3.30;1.80;;;12.40;99.90;;;;;;5022628;28;20464;-76
2023/11/09 11:33:14;;;;;;;4.50;1.10;;;12.40;99.90;;;;;;5015509;28;20457;-74
2023/11/09 11:35:46;;;;;;;1.60;1.50;;;12.50;99.90;;;;;;5017931;28;20173;-74
2023/11/09 11:38:22;;;;;;;2.30;1.60;;;12.50;99.90;;;;;;5019421;28;20465;-74
2023/11/09 11:40:57;;;;;;;3.20;1.93;;;12.40;99.90;;;;;;5018138;28;20831;-73
2023/11/09 11:43:22;;;;;;;3.30;2.20;;;12.50;99.90;;;;;;5008970;28;20556;-73
2023/11/09 11:45:49;;;;;;;1.60;1.30;;;12.60;99.90;;;;;;5027455;28;20595;-72
2023/11/09 11:48:28;;;;;;;4.07;2.40;;;12.60;99.90;;;;;;5021801;28;20185;-73
2023/11/09 11:50:59;;;;;;;2.30;1.60;;;12.50;99.90;;;;;;5018850;28;20939;-71
2023/11/09 11:53:30;;;;;;;1.60;1.13;;;12.30;99.90;;;;;;5021830;28;20868;-70
2023/11/09 11:56:13;;;;;;;3.70;1.60;;;12.20;99.90;;;;;;5023775;28;20471;-71
2023/11/09 11:58:52;;;;;;;3.50;1.70;;;12.20;99.90;;;;;;5015523;28;20549;-71
2023/11/09 12:01:20;;;;;;;1.23;1.13;;;12.10;99.90;;;;;;5009107;28;21044;-72
2023/11/09 12:03:51;;;;;;;1.70;0.90;;;12.10;99.90;;;;;;5006968;28;20457;-70
2023/11/09 12:06:20;;;;;;;1.10;1.03;;;12.20;99.90;;;;;;5015094;28;20935;-70
2023/11/09 12:08:53;;;;;;;1.40;0.90;;;12.20;99.90;;;;;;5022805;28;20434;-70
2023/11/09 12:11:31;;;;;;;2.03;1.37;;;12.20;99.90;;;;;;5016750;28;20968;-75
2023/11/09 12:14:01;;;;;;;1.47;1.10;;;12.30;99.90;;;;;;5014254;28;20529;-72
2023/11/09 12:16:29;;;;;;;1.47;0.90;;;12.50;99.90;;;;;;5018557;28;20856;-72
2023/11/09 12:19:00;;;;;;;0.93;0.83;;;12.50;99.90;;;;;;5008454;28;20446;-71
2023/11/09 12:21:29;;;;;;;2.83;2.53;;;12.60;99.90;;;;;;5015930;28;20487;-73
2023/11/09 12:23:56;;;;;;;1.67;1.10;;;12.80;99.90;;;;;;5019715;28;20457;-73
2023/11/09 12:26:24;;;;;;;4.27;0.90;;;13.00;99.90;;;;;;5020602;28;20955;-73
2023/11/09 12:28:53;;;;;;;2.70;0.80;;;12.90;99.90;;;;;;5017239;28;20461;-70
2023/11/09 12:31:20;;;;;;;3.63;0.60;;;12.80;99.90;;;;;;5016412;28;21000;-73
2023/11/09 12:34:06;;;;;;;0.80;0.80;;;12.80;99.90;;;;;;5010292;28;20461;-73
2023/11/09 12:36:34;;;;;;;1.67;1.10;;;12.70;99.90;;;;;;5021024;28;20552;-74
2023/11/09 12:39:03;;;;;;;0.70;0.70;;;12.80;99.90;;;;;;5011397;28;20435;-74
2023/11/09 12:41:35;;;;;;;1.00;0.77;;;12.90;99.90;;;;;;5018418;28;20512;-72
2023/11/09 12:44:02;;;;;;;1.10;0.70;;;13.00;99.90;;;;;;5025408;28;20598;-72
2023/11/09 12:46:27;;;;;;;1.00;0.80;;;13.20;99.90;;;;;;5023445;28;20487;-74
2023/11/09 12:48:58;;;;;;;1.03;0.93;;;13.20;99.90;;;;;;5004005;28;20958;-72
2023/11/09 12:51:24;;;;;;;3.13;0.97;;;13.00;99.90;;;;;;5020883;28;20177;-74
2023/11/09 12:53:51;;;;;;;0.70;0.67;;;12.80;99.90;;;;;;5025461;28;20508;-73
2023/11/09 12:56:20;;;;;;;0.73;0.73;;;12.80;99.90;;;;;;5025172;28;20942;-74
2023/11/09 12:58:52;;;;;;;0.73;0.73;;;12.70;99.90;;;;;;5015460;28;20430;-74
2023/11/09 13:01:18;;;;;;;0.93;0.60;;;12.70;99.90;;;;;;5017359;28;20461;-74